Latest Coastal Weather Observations for Port Fairy

IDV60701

Issued at 1:51 am EST Thursday 1 September 2016 (issued every 10 minutes, with the page automatically refreshed every 10 minutes)

About coastal observations | Map of coastal stations | Coastal observations for VIC | Marine services | Other Formats
Station Details ID: 090175 Name: PORT FAIRY AWS Lat: -38.39 Lon: 142.23 Height: 10.0 m
Data from the previous 72 hours. | See also: Recent months at Port Fairy
Date/Time
EST
Temp
°C
Wind Pressure Rain since
9am
mm
Weather Cloud Vis
km
Sea
Height
m
Swell
Dir  Spd
kts
Gust
kts
hPa Trend Height
m
Period
s
Dir
01/01:30am 10.9 NNW 4 5 1017.2 - - - - - - - - -
01/01:00am 11.2 NW 4 7 1017.3 - - - - - - - - -
01/12:30am 11.0 NW 2 4 1017.1 - - - - - - - - -
01/12:00am 11.4 WNW 3 6 1017.0 - - Recent precip. - - - - - -
 
Date/Time
EST
Temp
°C
Wind Pressure Rain since
9am
mm
Weather Cloud Vis
km
Sea
Height
m
Swell
Dir  Spd
kts
Gust
kts
hPa Trend Height
m
Period
s
Dir
31/11:30pm 11.4 NW 4 7 1017.0 - - - - - - - - -
31/11:00pm 11.4 WNW 5 9 1016.9 - - - - - - - - -
31/10:30pm 11.0 NW 5 7 1016.9 - - - - - - - - -
31/10:00pm 10.9 NW 4 7 1016.8 - - - - - - - - -
31/09:30pm 11.0 NW 4 7 1016.6 - - - - - - - - -
31/09:00pm 11.2 WNW 4 6 1016.3 - - - - - - - - -
31/08:30pm 11.4 WNW 4 6 1016.1 - - - - - - - - -
31/08:00pm 12.1 W 6 8 1015.7 - - - - - - - - -
31/07:30pm 11.8 W 6 9 1015.4 - - - - - - - - -
31/07:00pm 11.8 W 6 8 1015.1 - - - - - - - - -
31/06:30pm 12.1 W 6 7 1014.8 - - - - - - - - -
31/06:00pm 12.8 W 7 11 1014.6 - - - - - - - - -
31/05:30pm 13.3 W 8 12 1014.3 - - - - - - - - -
31/05:00pm 13.6 WNW 10 15 1013.9 - - - - - - - - -
31/04:30pm 14.5 W 11 18 1013.7 - - - - - - - - -
31/04:00pm 14.6 W 13 19 1013.6 - - - - - - - - -
31/03:30pm 14.7 W 15 22 1013.5 - - - - - - - - -
31/03:00pm 14.5 W 15 21 1013.3 - 0.6 Recent precip. - - - - - -
31/02:30pm 15.4 W 14 22 1013.0 - 0.0 - - - - - - -
31/02:00pm 15.7 W 12 17 1012.9 - 0.0 - - - - - - -
31/01:30pm 15.5 W 14 22 1012.8 - 0.0 - - - - - - -
31/01:00pm 15.9 WNW 14 22 1012.8 - 0.0 - - - - - - -
31/12:30pm 16.0 WNW 13 21 1013.0 - 0.0 - - - - - - -
31/12:00pm 14.9 WNW 13 23 1013.1 - 0.0 - - - - - - -
31/11:30am 14.4 WNW 16 26 1013.2 - 0.0 - - - - - - -
31/11:00am 15.1 WNW 12 19 1013.1 - 0.0 - - - - - - -
31/10:30am 14.2 WNW 14 21 1013.0 - 0.0 - - - - - - -
31/10:00am 13.8 WNW 9 15 1013.0 - 0.0 - - - - - - -
31/09:30am 12.9 WNW 9 15 1013.1 - 0.0 - - - - - - -
31/09:00am 13.1 NW 8 14 1012.8 - 0.4 - - - - - - -
31/08:30am 13.1 NNW 8 12 1012.3 - 0.4 - - - - - - -
31/08:00am 12.4 NNW 7 11 1012.1 - 0.4 - - - - - - -
31/07:30am 11.5 NNW 6 8 1011.9 - 0.4 - - - - - - -
31/07:00am 11.4 NNW 6 8 1011.5 - 0.4 - - - - - - -
31/06:30am 11.6 NW 6 10 1011.2 - 0.4 - - - - - - -
31/06:00am 11.3 NW 6 10 1010.8 - 0.4 - - - - - - -
31/05:30am 11.2 NNW 6 8 1010.4 - 0.4 - - - - - - -
31/05:00am 11.7 NNW 7 10 1010.1 - 0.4 - - - - - - -
31/04:30am 11.5 NNW 6 10 1010.0 - 0.4 - - - - - - -
31/04:00am 11.9 NNW 7 11 1009.7 - 0.4 - - - - - - -
31/03:30am 12.2 NNW 7 12 1009.8 - 0.4 - - - - - - -
31/03:00am 12.4 NNW 6 10 1009.8 - 0.4 - - - - - - -
31/02:30am 12.5 NNW 5 9 1009.9 - 0.4 - - - - - - -
31/02:00am 12.6 N 7 11 1010.4 - 0.4 - - - - - - -
31/01:30am 11.8 N 5 8 1010.6 - 0.4 - - - - - - -
31/01:00am 11.5 N 5 7 1011.0 - 0.4 - - - - - - -
31/12:30am 11.1 NNE 5 6 1011.0 - 0.4 - - - - - - -
31/12:00am 11.0 N 4 6 1011.2 - 0.4 - - - - - - -
 
Date/Time
EST
Temp
°C
Wind Pressure Rain since
9am
mm
Weather Cloud Vis
km
Sea
Height
m
Swell
Dir  Spd
kts
Gust
kts
hPa Trend Height
m
Period
s
Dir
30/11:30pm 10.9 N 2 3 1011.3 - 0.4 - - - - - - -
30/11:00pm 11.4 NNE 2 3 1011.5 - 0.4 - - - - - - -
30/10:30pm 11.3 CALM 0 2 1011.8 - 0.4 - - - - - - -
30/10:00pm 11.4 NNW 4 6 1011.9 - 0.4 - - - - - - -
30/09:30pm 11.8 N 3 4 1011.8 - 0.4 - - - - - - -
30/09:00pm 12.2 N 3 3 1011.7 - 0.4 - - - - - - -
30/08:30pm 13.1 N 3 5 1011.7 - 0.4 - - - - - - -
30/08:00pm 13.4 N 4 6 1011.6 - 0.4 - - - - - - -
30/07:30pm 13.5 N 4 5 1011.6 - 0.4 - - - - - - -
30/07:00pm 13.7 NNW 4 7 1011.5 - 0.4 - - - - - - -
30/06:30pm 14.0 NNW 6 9 1011.4 - 0.4 - - - - - - -
30/06:00pm 14.1 N 7 12 1010.9 - 0.4 - - - - - - -
30/05:30pm 14.3 N 8 13 1010.5 - 0.4 - - - - - - -
30/05:00pm 14.0 NNW 7 11 1010.5 - 0.4 - - - - - - -
30/04:30pm 13.7 NNW 5 9 1010.6 - 0.4 - - - - - - -
30/04:00pm 14.2 N 5 8 1010.7 - 0.2 - - - - - - -
30/03:30pm 14.3 N 7 11 1010.7 - 0.2 - - - - - - -
30/03:00pm 14.6 N 9 17 1010.6 - 0.2 Recent precip. - - - - - -
30/02:30pm 14.7 NNE 8 14 1010.9 - 0.2 - - - - - - -
30/02:00pm 14.0 NNE 9 14 1011.0 - 0.0 - - - - - - -
30/01:30pm 14.2 NNE 13 20 1011.2 - 0.0 - - - - - - -
30/01:00pm 13.1 NE 10 14 1012.3 - 0.0 - - - - - - -
30/12:30pm 13.2 NNE 12 20 1012.9 - 0.0 - - - - - - -
30/12:00pm 12.9 NE 11 17 1013.3 - 0.0 - - - - - - -
30/11:30am 12.9 NNE 10 18 1013.9 - 0.0 - - - - - - -
30/11:00am 12.6 NNE 9 14 1014.3 - 0.0 - - - - - - -
30/10:30am 12.3 NNE 12 16 1014.6 - 0.0 - - - - - - -
30/10:00am 12.1 NNE 11 20 1015.0 - 0.0 - - - - - - -
30/09:30am 12.0 NNE 12 17 1015.6 - 0.0 - - - - - - -
30/09:00am 11.7 NNE 11 17 1015.9 - 1.4 - - - - - - -
30/08:30am 11.6 NNE 9 16 1016.0 - 1.4 - - - - - - -
30/08:00am 11.7 NE 11 16 1016.1 - 1.4 - - - - - - -
30/07:30am 11.5 NE 9 15 1016.2 - 1.2 - - - - - - -
30/07:00am 11.2 NNE 9 13 1016.2 - 1.2 - - - - - - -
30/06:30am 11.1 NE 9 15 1016.6 - 1.2 - - - - - - -
30/06:00am 11.1 NNE 8 12 1016.8 - 1.2 Recent precip. - - - - - -
30/05:30am 11.1 NNE 9 15 1017.2 - 0.6 - - - - - - -
30/05:00am 11.4 NNE 6 9 1017.1 - 0.2 - - - - - - -
30/04:30am 11.5 NNE 7 11 1017.1 - 0.2 - - - - - - -
30/04:00am 11.7 NNE 7 13 1017.2 - 0.2 - - - - - - -
30/03:30am 11.6 NE 4 5 1017.8 - 0.0 - - - - - - -
30/03:00am 11.8 NNE 6 9 1018.1 - 0.0 - - - - - - -
30/02:30am 12.4 NNE 7 12 1018.2 - 0.0 - - - - - - -
30/02:00am 12.8 NNE 9 13 1018.2 - 0.0 - - - - - - -
30/01:30am 12.8 NNE 10 14 1018.0 - 0.0 - - - - - - -
30/01:00am 13.0 NE 10 15 1017.6 - 0.0 - - - - - - -
30/12:30am 12.8 NE 9 13 1017.6 - 0.0 - - - - - - -
30/12:00am 12.8 NE 8 15 1018.7 - 0.0 - - - - - - -
 
Date/Time
EST
Temp
°C
Wind Pressure Rain since
9am
mm
Weather Cloud Vis
km
Sea
Height
m
Swell
Dir  Spd
kts
Gust
kts
hPa Trend Height
m
Period
s
Dir
29/11:30pm 12.8 NE 8 11 1018.5 - 0.0 - - - - - - -
29/11:00pm 13.5 NNE 8 12 1018.8 - 0.0 - - - - - - -
29/10:30pm 13.9 NE 8 13 1018.9 - 0.0 - - - - - - -
29/10:00pm 14.0 NE 10 13 1018.8 - 0.0 - - - - - - -
29/09:30pm 14.2 NE 8 13 1018.9 - 0.0 - - - - - - -
29/09:00pm 14.2 NE 9 13 1019.0 - 0.0 - - - - - - -
29/08:30pm 14.1 NE 8 11 1019.1 - 0.0 - - - - - - -
29/08:00pm 13.8 NE 4 7 1018.9 - 0.0 - - - - - - -
29/07:30pm 13.9 NE 6 9 1018.7 - 0.0 - - - - - - -
29/07:00pm 14.3 NE 7 11 1018.6 - 0.0 - - - - - - -
29/06:30pm 15.0 NE 8 12 1018.3 - 0.0 - - - - - - -
29/06:00pm 15.7 NE 8 14 1018.1 - 0.0 - - - - - - -
29/05:30pm 16.6 NE 9 14 1017.5 - 0.0 - - - - - - -
29/05:00pm 17.7 NNE 8 14 1017.8 - 0.0 - - - - - - -
29/04:30pm 18.4 NNE 11 17 1017.7 - 0.0 - - - - - - -
29/04:00pm 18.8 NNE 10 17 1017.8 - 0.0 - - - - - - -
29/03:30pm 18.9 NNE 11 16 1018.2 - 0.0 - - - - - - -
29/03:00pm 19.1 NNE 11 15 1018.5 - 0.0 - - - - - - -
29/02:30pm 18.3 NNE 11 18 1018.5 - 0.0 - - - - - - -
29/02:00pm 17.9 NNE 10 13 1018.8 - 0.0 - - - - - - -
29/01:30pm 17.8 NNE 9 18 1019.2 - 0.0 - - - - - - -
29/01:00pm 17.3 NNE 10 18 1019.7 - 0.0 - - - - - - -
29/12:30pm 17.2 NNE 12 18 1019.9 - 0.0 - - - - - - -
29/12:00pm 17.4 NNE 11 15 1020.2 - 0.0 - - - - - - -
29/11:30am 17.1 NNE 11 17 1020.5 - 0.0 - - - - - - -
29/11:00am 16.4 N 12 17 1020.9 - 0.0 - - - - - - -
29/10:30am 16.1 NNE 9 16 1021.1 - 0.0 - - - - - - -
29/10:00am 13.7 NNE 9 15 1021.4 - 0.0 - - - - - - -
29/09:30am 12.9 NNE 8 13 1021.5 - 0.0 - - - - - - -
29/09:00am 12.6 NE 6 10 1021.5 - 0.0 - - - - - - -
29/08:30am 10.8 NNE 5 8 1021.7 - 0.0 - - - - - - -
29/08:00am 9.0 NNE 6 9 1021.5 - 0.0 - - - - - - -
29/07:30am 8.2 NE 7 10 1021.1 - 0.0 - - - - - - -
29/07:00am 7.8 NNE 6 8 1020.9 - 0.0 - - - - - - -
29/06:30am 7.8 NNE 5 8 1020.5 - 0.0 - - - - - - -
29/06:00am 7.9 NE 6 8 1020.3 - 0.0 - - - - - - -
29/05:30am 8.1 NNE 5 7 1020.2 - 0.0 - - - - - - -
29/05:00am 8.0 NNE 6 9 1020.0 - 0.0 - - - - - - -
29/04:30am 8.1 NNE 6 8 1020.0 - 0.0 - - - - - - -
29/04:00am 8.5 NE 6 8 1019.7 - 0.0 - - - - - - -
29/03:30am 8.9 NE 5 7 1019.7 - 0.0 - - - - - - -
29/03:00am 9.9 NNE 6 9 1019.7 - 0.0 - - - - - - -
29/02:30am 10.4 NNE 6 9 1019.8 - 0.0 - - - - - - -
29/02:00am 10.6 NNE 6 9 1019.9 - 0.0 - - - - - - -

Other Formats:

Comma delimited format used in spreadsheet applications
http://www.bom.gov.au/fwo/IDV60701/IDV60701.94830.axf

JavaScript Object Notation format (JSON) in row-major order
http://www.bom.gov.au/fwo/IDV60701/IDV60701.94830.json